Portada
METAR-TAF:

METAR-TAF

Aeroports :

Aeroport Internacional de Tozeur

Tozeur, Tunísia

latitud: 33-55N, longitud: 008-06E, altitud: 87 m

Observació

L'informe es va fer fa 1 hora i 3 minuts, a les 05:00 UTC
Vent 19 kt del Est
Temperatura 25°C
Humitat 41%
Pressió 1006 hPa
Visibilitat: 8000 m
Núvols disperses a una alçada de 3300 ft

METAR: DTTZ 040500Z 10019KT 8000 SCT033 25/11 Q1006 NOSIG

Hora: 07:03 (06:03 UTC)

Pronòstic

L'informe es va fer fa 7 hores i 3 minuts, a les 23:00 UTC
Pronòstic vàlid del 04 a les 00 UTC al 04 a les 24 UTC
Vent 20 kt del Est
Visibilitat: 8000 m
Escasses núvols a una alçada de 3300 ft
Evolucionant progressivament
l' 04 a les 10 UTC al 04 a les 12 UTC
Vent 10 kt del Est

TAF: DTTZ 032300Z 0400/0424 10020KT 8000 FEW033 BECMG 0410/0412 10010KT

Observacions i pronòstics meteorològics de més de 4000 aeroports (METAR i TAF).

Les estacions disponibles són els punts grocs i vermells al mapa.

Posi el ratolí al punt desitjat per veure el nom de l'estació.

Feu clic per veure les observacions i els pronòstics meteorològics.

Per canviar el mapa: feu clic els botons verds amb una creu de color negre per apropar; al botó verd amb un guió per allunyar la imatge; o en les fletxes verdes per a mapes adjacents.


METAR-TAF: